Alabama, New York
Current Conditions -  °F | °C
As of 5:54 PM on Thursday 20 Nov 2014 (Local Time) from KBUF Reporting Station
Broken Clouds Broken Clouds  
Wind Chill: -12°   Ceiling: 7500
Heat Index: -5°   Visibility: 10mi
Dew Point: -11°   Wind: 15mph
Humidity: 65%   Direction: 280°W
Pressure: 29.91"   Gusts: 18mph
Location:  43.1°N, 78.39°W
Report Text: KBUF 202254Z 28013G16KT 10SM FEW005 FEW035 BKN075 M05/M11 A2991 RMK AO2 SLP138 OCNL LTGIC DSNT SE CB DSNT SE T10501106
Loading
Personal Weather Stations






























Interactive Weather Map New forecast layout! Learn more

10-Day Weather Forecast

Advertisements
Track Severe Weather on mobile